createdAt,value
2023-11-18T00:00:57.182Z,99824.94
2023-11-18T00:03:23.896Z,99825.13
2023-11-18T00:05:50.516Z,99831.13
2023-11-18T00:08:17.101Z,99833.00
2023-11-18T00:10:44.026Z,99828.84
2023-11-18T00:13:10.640Z,99823.44
2023-11-18T00:15:37.278Z,99835.44
2023-11-18T00:18:03.993Z,99835.44
2023-11-18T00:20:32.286Z,99843.16
2023-11-18T00:22:59.411Z,99840.69
2023-11-18T00:25:26.251Z,99842.91
2023-11-18T00:27:52.958Z,99835.66
2023-11-18T00:30:19.546Z,99851.00
2023-11-18T00:32:46.285Z,99847.03
2023-11-18T00:35:13.117Z,99843.56
2023-11-18T00:37:40.082Z,99855.97
2023-11-18T00:40:08.558Z,99848.81
2023-11-18T00:42:35.158Z,99856.63
2023-11-18T00:45:01.797Z,99849.41
2023-11-18T00:47:28.571Z,99848.81
2023-11-18T00:49:55.583Z,99859.88
2023-11-18T00:52:22.335Z,99858.00
2023-11-18T00:54:48.883Z,99857.25
2023-11-18T00:57:15.495Z,99856.31
2023-11-18T00:59:45.143Z,99855.47
2023-11-18T01:02:12.216Z,99856.38
2023-11-18T01:04:39.036Z,99862.06
2023-11-18T01:07:05.642Z,99860.28
2023-11-18T01:09:37.970Z,99859.38
2023-11-18T01:12:08.388Z,99869.03
2023-11-18T01:14:37.332Z,99871.06
2023-11-18T01:17:06.481Z,99874.81
2023-11-18T01:19:34.840Z,99864.53
2023-11-18T01:22:01.957Z,99879.66
2023-11-18T01:24:29.401Z,99875.50
2023-11-18T01:26:55.945Z,99877.38
2023-11-18T01:29:23.495Z,99870.25
2023-11-18T01:31:52.738Z,99875.59
2023-11-18T01:34:23.256Z,99871.53
2023-11-18T01:36:50.963Z,99877.72
2023-11-18T01:39:20.339Z,99868.97
2023-11-18T01:41:47.273Z,99869.81
2023-11-18T01:44:16.966Z,99864.50
2023-11-18T01:46:47.426Z,99876.78
2023-11-18T01:49:15.618Z,99872.38
2023-11-18T01:51:46.852Z,99877.44
2023-11-18T01:54:16.821Z,99876.44
2023-11-18T01:56:48.263Z,99869.28
2023-11-18T01:59:19.168Z,99881.50
2023-11-18T02:02:04.084Z,99886.94
2023-11-18T02:04:32.024Z,99888.53
2023-11-18T02:06:59.532Z,99879.00
2023-11-18T02:09:30.233Z,99891.94
2023-11-18T02:12:24.949Z,99889.31
2023-11-18T02:14:51.579Z,99887.09
2023-11-18T02:17:25.355Z,99891.44
2023-11-18T02:19:53.359Z,99893.13
2023-11-18T02:22:20.837Z,99894.63
2023-11-18T02:24:48.090Z,99901.44
2023-11-18T02:27:15.239Z,99893.38
2023-11-18T02:29:46.349Z,99899.56
2023-11-18T02:32:28.657Z,99905.84
2023-11-18T02:35:11.706Z,99911.59
2023-11-18T02:37:41.237Z,99921.94
2023-11-18T02:40:15.802Z,99913.28
2023-11-18T02:42:45.177Z,99913.13
2023-11-18T02:45:16.235Z,99911.16
2023-11-18T02:47:45.208Z,99901.84
2023-11-18T02:50:12.348Z,99908.13
2023-11-18T02:52:39.663Z,99905.56
2023-11-18T02:55:10.495Z,99914.13
2023-11-18T02:57:37.874Z,99911.59
2023-11-18T03:00:13.145Z,99918.38
2023-11-18T03:02:40.841Z,99917.59
2023-11-18T03:05:13.071Z,99922.84
2023-11-18T03:07:40.416Z,99916.94
2023-11-18T03:10:12.161Z,99913.28
2023-11-18T03:12:39.418Z,99924.63
2023-11-18T03:15:13.071Z,99925.66
2023-11-18T03:17:39.759Z,99927.19
2023-11-18T03:20:13.188Z,99931.50
2023-11-18T03:22:39.784Z,99929.66
2023-11-18T03:25:07.073Z,99934.91
2023-11-18T03:27:33.598Z,99934.38
2023-11-18T03:30:00.528Z,99930.03
2023-11-18T03:32:27.140Z,99939.63
2023-11-18T03:34:53.783Z,99939.63
2023-11-18T03:37:20.366Z,99929.19
2023-11-18T03:39:46.921Z,99928.53
2023-11-18T03:42:13.468Z,99935.66
2023-11-18T03:44:40.069Z,99947.84
2023-11-18T03:47:08.018Z,99947.84
2023-11-18T03:49:34.680Z,99963.34
2023-11-18T03:52:01.278Z,99952.09
2023-11-18T03:54:27.859Z,99959.88
2023-11-18T03:56:54.403Z,99961.78
2023-11-18T03:59:21.373Z,99964.13
2023-11-18T04:01:50.203Z,99966.41
2023-11-18T04:04:17.867Z,99973.38
2023-11-18T04:06:44.631Z,99975.81
2023-11-18T04:09:11.635Z,99980.06
2023-11-18T04:11:39.764Z,99982.63
2023-11-18T04:14:06.501Z,99980.06
2023-11-18T04:16:33.149Z,99978.28
2023-11-18T04:18:59.723Z,99978.44
2023-11-18T04:21:26.258Z,99992.28
2023-11-18T04:23:52.934Z,99985.66
2023-11-18T04:26:19.509Z,99994.47
2023-11-18T04:28:46.156Z,99992.63
2023-11-18T04:31:12.707Z,99996.75
2023-11-18T04:33:41.435Z,99995.06
2023-11-18T04:36:11.028Z,100002.09
2023-11-18T04:38:37.624Z,99997.88
2023-11-18T04:41:04.868Z,100002.44
2023-11-18T04:43:39.225Z,99994.81
2023-11-18T04:46:12.145Z,100015.25
2023-11-18T04:48:41.716Z,100018.91
2023-11-18T04:51:09.194Z,100014.38
2023-11-18T04:53:35.748Z,100016.19
2023-11-18T04:56:02.582Z,100017.19
2023-11-18T04:58:29.657Z,100025.69
2023-11-18T05:00:56.294Z,100011.59
2023-11-18T05:03:23.074Z,100018.22
2023-11-18T05:05:50.940Z,100010.41
2023-11-18T05:08:21.818Z,100009.75
2023-11-18T05:10:50.233Z,100015.09
2023-11-18T05:13:18.192Z,100007.47
2023-11-18T05:15:48.500Z,100007.69
2023-11-18T05:18:16.463Z,100020.94
2023-11-18T05:20:44.987Z,100023.72
2023-11-18T05:23:12.760Z,100030.75
2023-11-18T05:25:47.061Z,100037.91
2023-11-18T05:28:14.800Z,100025.75
2023-11-18T05:30:44.463Z,100029.31
2023-11-18T05:33:16.374Z,100026.09
2023-11-18T05:35:49.999Z,100033.97
2023-11-18T05:38:19.877Z,100030.56
2023-11-18T05:41:00.501Z,100034.97
2023-11-18T05:43:37.383Z,100052.38
2023-11-18T05:46:15.977Z,100039.38
2023-11-18T05:48:44.675Z,100048.03
2023-11-18T05:51:12.376Z,100052.44
2023-11-18T05:53:43.078Z,100060.19
2023-11-18T05:56:09.753Z,100062.88
2023-11-18T05:58:36.450Z,100056.50
2023-11-18T06:01:03.453Z,100062.81
2023-11-18T06:03:30.080Z,100066.44
2023-11-18T06:05:57.333Z,100067.13
2023-11-18T06:08:24.194Z,100067.53
2023-11-18T06:10:52.975Z,100072.47
2023-11-18T06:13:19.612Z,100064.72
2023-11-18T06:15:46.138Z,100063.81
2023-11-18T06:18:12.816Z,100061.94
2023-11-18T06:20:39.659Z,100071.59
2023-11-18T06:23:06.373Z,100068.28
2023-11-18T06:25:33.046Z,100064.84
2023-11-18T06:27:59.566Z,100063.97
2023-11-18T06:30:27.305Z,100067.53
2023-11-18T06:32:53.934Z,100072.78
2023-11-18T06:35:22.749Z,100079.75
2023-11-18T06:37:49.401Z,100082.50
2023-11-18T06:40:20.157Z,100080.66
2023-11-18T06:42:49.764Z,100085.75
2023-11-18T06:45:16.339Z,100080.91
2023-11-18T06:47:46.884Z,100087.00
2023-11-18T06:50:17.245Z,100093.28
2023-11-18T06:52:47.244Z,100094.97
2023-11-18T06:55:16.438Z,100101.94
2023-11-18T06:57:45.529Z,100093.63
2023-11-18T07:00:15.418Z,100102.28
2023-11-18T07:02:42.282Z,100100.84
2023-11-18T07:05:09.242Z,100092.88
2023-11-18T07:07:36.216Z,100114.50
2023-11-18T07:10:02.949Z,100108.13
2023-11-18T07:12:30.224Z,100119.25
2023-11-18T07:15:06.166Z,100115.56
2023-11-18T07:17:32.799Z,100123.94
2023-11-18T07:19:59.423Z,100130.66
2023-11-18T07:22:26.240Z,100125.91
2023-11-18T07:24:53.042Z,100132.84
2023-11-18T07:27:19.585Z,100120.31
2023-11-18T07:29:46.332Z,100120.50
2023-11-18T07:32:12.929Z,100127.97
2023-11-18T07:34:40.105Z,100113.63
2023-11-18T07:37:06.643Z,100129.00
2023-11-18T07:39:45.711Z,100121.69
2023-11-18T07:42:13.667Z,100129.31
2023-11-18T07:44:40.319Z,100123.72
2023-11-18T07:47:07.100Z,100135.94
2023-11-18T07:49:36.541Z,100130.00
2023-11-18T07:52:04.333Z,100136.72
2023-11-18T07:54:31.091Z,100148.50
2023-11-18T07:56:58.366Z,100153.41
2023-11-18T07:59:25.184Z,100157.41
2023-11-18T08:01:51.958Z,100174.47
2023-11-18T08:04:21.999Z,100167.16
2023-11-18T08:06:50.738Z,100172.06
2023-11-18T08:09:23.887Z,100169.00
2023-11-18T08:11:50.558Z,100169.34
2023-11-18T08:14:17.557Z,100177.53
2023-11-18T08:16:44.318Z,100172.75
2023-11-18T08:19:10.977Z,100179.06
2023-11-18T08:21:39.135Z,100171.97
2023-11-18T08:24:09.493Z,100164.97
2023-11-18T08:26:37.133Z,100164.91
2023-11-18T08:29:04.018Z,100164.56
2023-11-18T08:31:30.743Z,100163.63
2023-11-18T08:33:57.408Z,100163.19
2023-11-18T08:36:24.288Z,100164.69
2023-11-18T08:38:50.884Z,100161.97
2023-11-18T08:41:17.695Z,100158.56
2023-11-18T08:43:44.700Z,100164.63
2023-11-18T08:46:11.368Z,100161.25
2023-11-18T08:48:39.092Z,100152.28
2023-11-18T08:51:09.621Z,100159.19
2023-11-18T08:53:42.325Z,100154.84
2023-11-18T08:56:15.061Z,100162.38
2023-11-18T08:58:50.590Z,100148.00
2023-11-18T09:01:17.454Z,100161.16
2023-11-18T09:03:44.732Z,100157.41
2023-11-18T09:06:27.291Z,100152.13
2023-11-18T09:08:55.187Z,100159.94
2023-11-18T09:11:30.347Z,100163.25
2023-11-18T09:14:01.628Z,100155.53
2023-11-18T09:16:32.243Z,100148.38
2023-11-18T09:19:03.930Z,100154.97
2023-11-18T09:21:32.637Z,100162.03
2023-11-18T09:23:59.222Z,100146.31
2023-11-18T09:26:27.526Z,100163.84
2023-11-18T09:28:54.497Z,100162.59
2023-11-18T09:31:22.852Z,100159.78
2023-11-18T09:33:58.869Z,100165.81
2023-11-18T09:36:25.627Z,100178.06
2023-11-18T09:38:52.897Z,100161.31
2023-11-18T09:41:19.766Z,100169.09
2023-11-18T09:43:48.012Z,100167.97
2023-11-18T09:46:17.009Z,100182.47
2023-11-18T09:48:48.729Z,100161.94
2023-11-18T09:51:25.574Z,100172.50
2023-11-18T09:53:54.060Z,100175.41
2023-11-18T09:56:55.711Z,100174.19
2023-11-18T09:59:37.620Z,100157.41
2023-11-18T10:02:05.903Z,100151.19
2023-11-18T10:04:32.989Z,100151.09
2023-11-18T10:07:03.775Z,100159.19
2023-11-18T10:09:38.221Z,100145.91
2023-11-18T10:12:08.822Z,100167.03
2023-11-18T10:14:36.867Z,100154.78
2023-11-18T10:17:10.462Z,100160.25
2023-11-18T10:19:53.554Z,100154.59
2023-11-18T10:22:27.447Z,100154.38
2023-11-18T10:24:55.687Z,100168.06
2023-11-18T10:27:29.361Z,100152.91
2023-11-18T10:29:57.611Z,100156.47
2023-11-18T10:32:28.573Z,100165.06
2023-11-18T10:35:00.059Z,100170.78
2023-11-18T10:37:27.347Z,100163.44
2023-11-18T10:39:53.977Z,100157.97
2023-11-18T10:42:20.705Z,100135.91
2023-11-18T10:44:59.709Z,100143.38
2023-11-18T10:47:36.964Z,100154.59
2023-11-18T10:50:04.016Z,100151.88
2023-11-18T10:52:36.425Z,100131.41
2023-11-18T10:55:12.905Z,100124.13
2023-11-18T10:57:43.398Z,100118.38
2023-11-18T11:00:33.643Z,100114.25
2023-11-18T11:03:00.704Z,100117.56
2023-11-18T11:05:34.601Z,100145.84
2023-11-18T11:08:06.395Z,100148.38
2023-11-18T11:10:33.315Z,100149.31
2023-11-18T11:13:03.458Z,100170.13
2023-11-18T11:15:44.819Z,100170.69
2023-11-18T11:18:28.844Z,100182.38
2023-11-18T11:21:23.293Z,100177.53
2023-11-18T11:24:02.270Z,100194.34
2023-11-18T11:27:40.835Z,100200.19
2023-11-18T11:30:22.064Z,100191.72
2023-11-18T11:32:54.530Z,100214.97
2023-11-18T11:35:24.950Z,100213.94
2023-11-18T11:37:54.898Z,100214.97
2023-11-18T11:40:23.801Z,100241.66
2023-11-18T11:42:56.580Z,100232.78
2023-11-18T11:45:29.322Z,100230.25
2023-11-18T11:48:15.126Z,100248.41
2023-11-18T11:50:55.650Z,100245.59
2023-11-18T11:53:27.587Z,100238.63
2023-11-18T11:56:06.161Z,100222.66
2023-11-18T11:58:38.160Z,100237.47
2023-11-18T12:01:35.981Z,100253.41
2023-11-18T12:04:08.473Z,100246.16
2023-11-18T12:06:42.825Z,100249.34
2023-11-18T12:09:10.714Z,100248.41
2023-11-18T12:11:40.837Z,100256.72
2023-11-18T12:14:34.082Z,100256.91
2023-11-18T12:17:22.277Z,100250.38
2023-11-18T12:19:50.622Z,100258.59
2023-11-18T12:22:27.836Z,100258.22
2023-11-18T12:25:00.446Z,100271.78
2023-11-18T12:27:42.326Z,100276.13
2023-11-18T12:30:19.473Z,100273.59
2023-11-18T12:33:21.668Z,100264.81
2023-11-18T12:36:03.677Z,100267.44
2023-11-18T12:39:04.583Z,100268.38
2023-11-18T12:41:39.348Z,100262.34
2023-11-18T12:44:33.089Z,100267.06
2023-11-18T12:47:15.745Z,100253.03
2023-11-18T12:49:43.305Z,100261.31
2023-11-18T12:52:10.717Z,100264.81
2023-11-18T12:54:44.610Z,100255.78
2023-11-18T12:57:15.488Z,100260.09
2023-11-18T12:59:43.281Z,100263.31
2023-11-18T13:02:22.443Z,100263.50
2023-11-18T13:04:50.820Z,100266.50
2023-11-18T13:07:18.815Z,100261.41
2023-11-18T13:09:47.051Z,100262.47
2023-11-18T13:12:20.448Z,100272.91
2023-11-18T13:14:48.696Z,100261.63
2023-11-18T13:17:18.841Z,100267.53
2023-11-18T13:19:47.219Z,100259.53
2023-11-18T13:22:15.229Z,100260.56
2023-11-18T13:24:45.358Z,100263.31
2023-11-18T13:27:15.170Z,100265.38
2023-11-18T13:29:46.630Z,100264.72
2023-11-18T13:32:13.589Z,100271.25
2023-11-18T13:34:43.162Z,100257.97
2023-11-18T13:37:13.982Z,100278.41
2023-11-18T13:39:42.681Z,100290.50
2023-11-18T13:42:24.484Z,100287.72
2023-11-18T13:44:51.882Z,100293.69
2023-11-18T13:47:18.970Z,100298.03
2023-11-18T13:49:47.080Z,100306.78
2023-11-18T13:52:17.038Z,100303.41
2023-11-18T13:54:46.889Z,100302.34
2023-11-18T13:57:13.525Z,100292.66
2023-11-18T13:59:40.576Z,100292.91
2023-11-18T14:02:07.400Z,100304.25
2023-11-18T14:04:36.814Z,100313.56
2023-11-18T14:07:10.619Z,100307.09
2023-11-18T14:09:41.215Z,100311.22
2023-11-18T14:12:09.425Z,100323.66
2023-11-18T14:14:36.318Z,100308.94
2023-11-18T14:17:03.158Z,100320.91
2023-11-18T14:19:30.365Z,100322.88
2023-11-18T14:21:57.515Z,100318.53
2023-11-18T14:24:29.506Z,100327.94
2023-11-18T14:26:57.838Z,100327.00
2023-11-18T14:29:27.504Z,100329.00
2023-11-18T14:31:55.887Z,100330.50
2023-11-18T14:34:22.556Z,100331.03
2023-11-18T14:36:50.000Z,100346.28
2023-11-18T14:39:19.279Z,100334.31
2023-11-18T14:41:49.308Z,100337.63
2023-11-18T14:44:16.008Z,100347.69
2023-11-18T14:46:42.709Z,100344.19
2023-11-18T14:49:11.325Z,100346.91
2023-11-18T14:51:38.519Z,100341.22
2023-11-18T14:54:07.013Z,100351.19
2023-11-18T14:56:36.213Z,100354.38
2023-11-18T14:59:03.031Z,100355.56
2023-11-18T15:01:30.380Z,100363.56
2023-11-18T15:03:57.547Z,100367.13
2023-11-18T15:06:27.767Z,100357.94
2023-11-18T15:08:54.972Z,100356.00
2023-11-18T15:11:25.293Z,100348.69
2023-11-18T15:13:54.668Z,100359.66
2023-11-18T15:16:21.870Z,100358.91
2023-11-18T15:18:49.049Z,100361.88
2023-11-18T15:21:16.310Z,100353.69
2023-11-18T15:23:43.418Z,100354.91
2023-11-18T15:26:11.063Z,100362.22
2023-11-18T15:28:38.082Z,100366.41
2023-11-18T15:31:05.701Z,100375.69
2023-11-18T15:33:32.822Z,100391.06
2023-11-18T15:36:00.112Z,100392.41
2023-11-18T15:38:27.447Z,100401.06
2023-11-18T15:40:54.767Z,100403.69
2023-11-18T15:43:22.899Z,100402.09
2023-11-18T15:45:49.811Z,100401.16
2023-11-18T15:48:17.677Z,100394.38
2023-11-18T15:50:44.499Z,100395.72
2023-11-18T15:53:15.358Z,100388.84
2023-11-18T15:55:44.872Z,100393.41
2023-11-18T15:58:11.907Z,100395.97
2023-11-18T16:00:39.095Z,100393.19
2023-11-18T16:03:09.690Z,100387.13
2023-11-18T16:05:37.092Z,100392.66
2023-11-18T16:08:05.584Z,100398.25
2023-11-18T16:10:33.012Z,100399.31
2023-11-18T16:13:00.321Z,100395.94
2023-11-18T16:15:28.705Z,100403.91
2023-11-18T16:17:58.538Z,100415.13
2023-11-18T16:20:27.402Z,100415.31
2023-11-18T16:22:56.363Z,100408.06
2023-11-18T16:25:24.938Z,100415.13
2023-11-18T16:27:53.064Z,100417.94
2023-11-18T16:30:26.014Z,100424.19
2023-11-18T16:32:53.392Z,100427.25
2023-11-18T16:35:21.454Z,100431.50
2023-11-18T16:37:48.876Z,100439.78
2023-11-18T16:40:16.762Z,100441.41
2023-11-18T16:42:52.090Z,100443.19
2023-11-18T16:45:21.946Z,100446.59
2023-11-18T16:47:53.338Z,100443.78
2023-11-18T16:50:21.660Z,100442.09
2023-11-18T16:52:51.542Z,100447.84
2023-11-18T16:55:18.253Z,100440.56
2023-11-18T16:57:44.845Z,100447.00
2023-11-18T17:00:24.280Z,100438.88
2023-11-18T17:02:57.732Z,100447.47
2023-11-18T17:05:26.601Z,100445.59
2023-11-18T17:07:56.127Z,100450.84
2023-11-18T17:10:24.242Z,100450.94
2023-11-18T17:12:51.060Z,100449.31
2023-11-18T17:15:17.981Z,100451.09
2023-11-18T17:17:50.922Z,100454.81
2023-11-18T17:20:18.106Z,100452.50
2023-11-18T17:22:44.862Z,100454.22
2023-11-18T17:25:18.291Z,100463.16
2023-11-18T17:27:46.441Z,100463.16
2023-11-18T17:30:17.077Z,100472.84
2023-11-18T17:32:45.316Z,100468.44
2023-11-18T17:35:16.192Z,100465.78
2023-11-18T17:37:47.309Z,100470.38
2023-11-18T17:40:17.305Z,100469.34
2023-11-18T17:42:45.741Z,100472.16
2023-11-18T17:45:13.820Z,100480.66
2023-11-18T17:47:45.316Z,100476.31
2023-11-18T17:50:14.124Z,100464.63
2023-11-18T17:52:42.453Z,100463.72
2023-11-18T17:55:09.770Z,100453.44
2023-11-18T17:57:37.051Z,100451.97
2023-11-18T18:00:09.972Z,100457.44
2023-11-18T18:02:37.871Z,100462.00
2023-11-18T18:05:05.730Z,100473.38
2023-11-18T18:07:32.597Z,100480.28
2023-11-18T18:09:59.220Z,100481.56
2023-11-18T18:12:26.975Z,100477.22
2023-11-18T18:14:53.797Z,100476.16
2023-11-18T18:17:21.096Z,100474.28
2023-11-18T18:19:47.706Z,100488.06
2023-11-18T18:22:14.295Z,100479.31
2023-11-18T18:24:40.891Z,100476.16
2023-11-18T18:27:08.450Z,100468.97
2023-11-18T18:29:35.642Z,100462.63
2023-11-18T18:32:02.281Z,100458.88
2023-11-18T18:34:28.854Z,100452.94
2023-11-18T18:36:55.881Z,100466.63
2023-11-18T18:39:22.429Z,100472.75
2023-11-18T18:41:49.233Z,100464.63
2023-11-18T18:44:16.029Z,100473.44
2023-11-18T18:46:42.581Z,100466.88
2023-11-18T18:49:10.738Z,100467.97
2023-11-18T18:51:37.431Z,100469.50
2023-11-18T18:54:05.783Z,100457.59
2023-11-18T18:56:32.569Z,100454.53
2023-11-18T18:58:59.158Z,100463.94
2023-11-18T19:01:27.714Z,100465.47
2023-11-18T19:03:54.687Z,100461.31
2023-11-18T19:06:21.337Z,100463.16
2023-11-18T19:08:48.060Z,100467.97
2023-11-18T19:11:16.041Z,100468.34
2023-11-18T19:13:42.773Z,100471.72
2023-11-18T19:16:10.963Z,100465.72
2023-11-18T19:18:38.475Z,100454.81
2023-11-18T19:21:05.671Z,100446.63
2023-11-18T19:23:32.522Z,100450.78
2023-11-18T19:25:59.140Z,100450.63
2023-11-18T19:28:25.990Z,100464.94
2023-11-18T19:30:52.606Z,100477.72
2023-11-18T19:33:20.507Z,100486.53
2023-11-18T19:35:47.141Z,100478.00
2023-11-18T19:38:14.532Z,100470.34
2023-11-18T19:40:41.139Z,100471.03
2023-11-18T19:43:08.225Z,100476.59
2023-11-18T19:45:35.056Z,100475.50
2023-11-18T19:48:01.718Z,100488.63
2023-11-18T19:50:28.722Z,100479.22
2023-11-18T19:52:55.364Z,100484.41
2023-11-18T19:55:22.158Z,100489.44
2023-11-18T19:57:48.777Z,100499.09
2023-11-18T20:00:19.404Z,100494.97
2023-11-18T20:02:46.614Z,100498.81
2023-11-18T20:05:13.990Z,100502.94
2023-11-18T20:07:40.717Z,100497.13
2023-11-18T20:10:09.754Z,100493.75
2023-11-18T20:12:36.826Z,100478.94
2023-11-18T20:15:05.318Z,100481.56
2023-11-18T20:17:33.452Z,100484.06
2023-11-18T20:20:00.835Z,100488.31
2023-11-18T20:22:27.576Z,100487.28
2023-11-18T20:24:54.164Z,100492.31
2023-11-18T20:27:20.746Z,100506.50
2023-11-18T20:29:47.360Z,100507.34
2023-11-18T20:32:14.060Z,100499.69
2023-11-18T20:34:40.874Z,100495.28
2023-11-18T20:37:07.580Z,100501.69
2023-11-18T20:39:34.928Z,100517.78
2023-11-18T20:42:01.613Z,100513.75
2023-11-18T20:44:28.971Z,100510.41
2023-11-18T20:47:04.248Z,100508.75
2023-11-18T20:49:30.981Z,100525.38
2023-11-18T20:51:58.599Z,100530.91
2023-11-18T20:54:25.403Z,100515.78
2023-11-18T20:56:52.208Z,100512.25
2023-11-18T20:59:19.740Z,100519.84
2023-11-18T21:01:47.448Z,100533.63
2023-11-18T21:04:14.120Z,100540.75
2023-11-18T21:06:40.937Z,100535.34
2023-11-18T21:09:07.809Z,100527.25
2023-11-18T21:11:34.459Z,100520.00
2023-11-18T21:14:01.093Z,100526.53
2023-11-18T21:16:27.726Z,100537.84
2023-11-18T21:18:54.372Z,100540.09
2023-11-18T21:21:22.869Z,100542.72
2023-11-18T21:23:49.479Z,100546.97
2023-11-18T21:26:16.047Z,100553.53
2023-11-18T21:28:42.737Z,100554.56
2023-11-18T21:31:09.600Z,100545.72
2023-11-18T21:33:38.746Z,100545.84
2023-11-18T21:36:05.837Z,100544.13
2023-11-18T21:38:32.449Z,100543.38
2023-11-18T21:40:59.048Z,100541.66
2023-11-18T21:43:25.693Z,100542.72
2023-11-18T21:45:52.984Z,100532.34
2023-11-18T21:48:22.217Z,100526.19
2023-11-18T21:50:49.862Z,100540.16
2023-11-18T21:53:16.435Z,100537.47
2023-11-18T21:55:43.749Z,100538.44
2023-11-18T21:58:10.354Z,100523.75
2023-11-18T22:00:45.101Z,100521.13
2023-11-18T22:03:13.795Z,100533.34
2023-11-18T22:05:40.708Z,100529.19
2023-11-18T22:08:08.793Z,100522.16
2023-11-18T22:10:35.509Z,100521.09
2023-11-18T22:13:02.119Z,100515.00
2023-11-18T22:15:28.676Z,100513.16
2023-11-18T22:17:55.276Z,100515.59
2023-11-18T22:20:26.090Z,100524.44
2023-11-18T22:22:52.921Z,100525.03
2023-11-18T22:25:19.893Z,100508.06
2023-11-18T22:27:48.461Z,100499.22
2023-11-18T22:30:17.282Z,100490.31
2023-11-18T22:32:44.184Z,100503.09
2023-11-18T22:35:10.912Z,100501.19
2023-11-18T22:37:37.573Z,100505.38
2023-11-18T22:40:10.162Z,100504.38
2023-11-18T22:42:38.830Z,100503.03
2023-11-18T22:45:06.313Z,100501.91
2023-11-18T22:47:33.020Z,100480.38
2023-11-18T22:50:01.023Z,100470.03
2023-11-18T22:52:28.077Z,100477.69
2023-11-18T22:54:54.825Z,100496.59
2023-11-18T22:57:21.400Z,100501.56
2023-11-18T22:59:48.008Z,100506.88
2023-11-18T23:02:17.761Z,100505.00
2023-11-18T23:04:46.606Z,100499.75
2023-11-18T23:07:15.711Z,100499.91
2023-11-18T23:09:42.746Z,100503.50
2023-11-18T23:12:10.572Z,100502.13
2023-11-18T23:14:38.052Z,100492.59
2023-11-18T23:19:41.661Z,100483.06
2023-11-18T23:22:14.831Z,100480.44
2023-11-18T23:24:41.600Z,100473.28
2023-11-18T23:27:08.285Z,100479.09
2023-11-18T23:29:35.161Z,100483.28
2023-11-18T23:32:01.917Z,100471.94
2023-11-18T23:34:28.534Z,100463.06
2023-11-18T23:36:55.144Z,100459.06
2023-11-18T23:39:29.914Z,100458.78
2023-11-18T23:41:56.886Z,100457.88
2023-11-18T23:44:25.517Z,100460.28
2023-11-18T23:46:53.173Z,100471.88
2023-11-18T23:49:20.033Z,100462.06
2023-11-18T23:51:47.393Z,100458.22
2023-11-18T23:54:14.137Z,100461.63
2023-11-18T23:56:40.914Z,100473.84
2023-11-18T23:59:08.199Z,100470.38
